Time;durP1;ratioP1;P1;durP2;ratioP2;P2;SDS_P1;SDS_P2;PMS_P1;PMS_P2;Temp;Humidity;BMP_temperature;BMP_pressure;BME280_temperature;BME280_humidity;BME280_pressure;Samples;Min_cycle;Max_cycle;Signal;HPM_P1;HPM_P2
2022/04/23 00:01:27;;;;;;;6.63;4.70;;;;;;;11.13;63.08;94448.06;10442251;27;96805;-62
2022/04/23 00:06:31;;;;;;;8.95;5.63;;;;;;;11.32;62.69;94440.53;10442667;27;98309;-62
2022/04/23 00:11:34;;;;;;;7.97;5.90;;;;;;;11.41;62.14;94423.66;10455115;27;101158;-62
2022/04/23 00:16:37;;;;;;;7.85;6.05;;;;;;;11.25;63.09;94423.97;10444487;27;98041;-62
2022/04/23 00:21:42;;;;;;;7.50;6.05;;;;;;;11.06;63.87;94428.13;10445314;27;96808;-62
2022/04/23 00:26:45;;;;;;;6.70;5.47;;;;;;;10.85;64.21;94419.41;10438556;27;97144;-62
2022/04/23 00:31:48;;;;;;;6.20;5.60;;;;;;;10.88;64.32;94403.34;10427598;27;97750;-62
2022/04/23 00:36:52;;;;;;;6.10;5.30;;;;;;;10.96;64.39;94395.34;10441012;27;96919;-62
2022/04/23 00:41:59;;;;;;;5.67;4.80;;;;;;;11.17;63.77;94398.81;10426784;27;96926;-62
2022/04/23 00:47:02;;;;;;;5.80;5.20;;;;;;;11.34;62.75;94400.09;10439067;27;97010;-62
2022/04/23 00:52:07;;;;;;;7.13;4.90;;;;;;;11.28;63.04;94395.63;10433779;27;99229;-62
2022/04/23 00:57:10;;;;;;;6.53;5.05;;;;;;;11.11;63.77;94397.78;10442847;27;97846;-62
2022/04/23 01:02:15;;;;;;;7.05;5.70;;;;;;;10.85;65.10;94406.34;10416858;27;96842;-62
2022/04/23 01:07:19;;;;;;;8.93;5.45;;;;;;;10.75;64.96;94401.47;10440085;27;96966;-62
2022/04/23 01:12:22;;;;;;;7.70;6.07;;;;;;;10.79;64.84;94407.09;10438134;27;97772;-62
2022/04/23 01:17:25;;;;;;;8.02;6.10;;;;;;;10.70;65.21;94410.88;10423886;27;96996;-62
2022/04/23 01:22:29;;;;;;;6.53;5.15;;;;;;;10.80;64.93;94412.13;10420603;27;96800;-62
2022/04/23 01:27:34;;;;;;;6.30;5.05;;;;;;;10.79;63.95;94409.72;10431275;27;97066;-62
2022/04/23 01:32:37;;;;;;;7.43;5.43;;;;;;;10.78;64.45;94408.13;10421407;27;97849;-62
2022/04/23 01:37:43;;;;;;;5.00;4.30;;;;;;;10.78;63.60;94413.34;10424239;27;99143;-62
2022/04/23 01:42:46;;;;;;;6.97;5.05;;;;;;;10.80;63.58;94406.13;10444839;27;97370;-62
2022/04/23 01:47:49;;;;;;;6.25;5.10;;;;;;;10.83;63.46;94413.56;10452196;27;98018;-62
2022/04/23 01:52:53;;;;;;;6.75;5.72;;;;;;;10.65;64.17;94408.84;10423474;27;96938;-62
2022/04/23 01:57:56;;;;;;;7.03;5.20;;;;;;;10.59;64.84;94399.97;10430603;27;100229;-62
2022/04/23 02:02:59;;;;;;;8.85;6.70;;;;;;;10.68;65.28;94402.44;10438077;27;97541;-62
2022/04/23 02:08:03;;;;;;;8.75;6.38;;;;;;;10.67;65.00;94416.47;10427169;27;96727;-62
2022/04/23 02:13:06;;;;;;;7.10;6.30;;;;;;;10.42;66.32;94398.69;10439240;27;96872;-62
2022/04/23 02:18:10;;;;;;;7.25;5.15;;;;;;;10.34;65.98;94432.75;10447104;27;102270;-62
2022/04/23 02:23:15;;;;;;;5.63;4.82;;;;;;;10.61;65.27;94424.09;10440429;27;98291;-62
2022/04/23 02:28:18;;;;;;;6.68;5.97;;;;;;;10.73;65.47;94429.59;10448741;27;98319;-62
2022/04/23 02:33:20;;;;;;;9.52;6.22;;;;;;;10.75;65.67;94424.16;10430467;27;96856;-62
2022/04/23 02:38:25;;;;;;;7.82;6.03;;;;;;;10.57;66.14;94422.88;10437385;27;96867;-62
2022/04/23 02:43:27;;;;;;;6.67;5.50;;;;;;;10.70;66.64;94431.78;10424373;27;96780;-62
2022/04/23 02:48:30;;;;;;;7.10;6.40;;;;;;;10.70;67.22;94426.56;10429111;27;97988;-62
2022/04/23 02:53:35;;;;;;;10.52;7.18;;;;;;;10.34;68.50;94424.94;10436273;27;97538;-62
2022/04/23 02:58:41;;;;;;;7.28;6.57;;;;;;;10.31;68.33;94427.94;10428437;27;96929;-62
2022/04/23 03:03:44;;;;;;;8.20;6.32;;;;;;;10.52;67.72;94417.41;10420570;27;96759;-62
2022/04/23 03:08:48;;;;;;;9.48;6.65;;;;;;;10.74;67.13;94422.56;10436596;27;96788;-62
2022/04/23 03:13:51;;;;;;;8.77;6.87;;;;;;;10.82;67.57;94414.56;10424821;27;96974;-62
2022/04/23 03:18:54;;;;;;;9.30;6.90;;;;;;;10.84;67.66;94412.56;10422056;27;101957;-62
2022/04/23 03:23:58;;;;;;;8.18;6.35;;;;;;;10.99;67.25;94425.50;10426266;27;96912;-62
2022/04/23 03:29:03;;;;;;;8.47;7.57;;;;;;;11.00;68.09;94432.34;10440960;27;96820;-62
2022/04/23 03:34:07;;;;;;;9.77;8.50;;;;;;;11.01;68.16;94433.94;10426886;27;96767;-62
2022/04/23 03:39:12;;;;;;;10.97;8.27;;;;;;;10.54;71.23;94407.59;10438478;27;96913;-62
2022/04/23 03:44:14;;;;;;;10.68;9.13;;;;;;;10.10;73.02;94402.69;10425623;27;97974;-62
2022/04/23 03:49:17;;;;;;;9.45;8.07;;;;;;;9.96;73.67;94391.38;10438187;27;97649;-62
2022/04/23 03:54:22;;;;;;;11.40;8.60;;;;;;;9.91;73.90;94406.78;10435067;27;98773;-62
2022/04/23 03:59:25;;;;;;;10.80;8.00;;;;;;;9.99;73.76;94398.78;10425432;27;96920;-62
2022/04/23 04:04:28;;;;;;;9.45;8.45;;;;;;;10.16;72.38;94405.34;10443581;27;96742;-62
2022/04/23 04:09:33;;;;;;;8.70;7.82;;;;;;;10.37;71.57;94395.84;10435434;27;96842;-62
2022/04/23 04:14:36;;;;;;;11.20;9.03;;;;;;;10.58;70.73;94390.56;10443718;27;97315;-62
2022/04/23 04:19:40;;;;;;;12.67;9.27;;;;;;;10.71;69.82;94394.22;10453691;27;96700;-62
2022/04/23 04:24:44;;;;;;;11.77;8.77;;;;;;;10.78;70.17;94397.66;10446912;27;96697;-62
2022/04/23 04:29:47;;;;;;;10.70;8.57;;;;;;;10.84;70.19;94388.25;10452227;27;96796;-62
2022/04/23 04:34:50;;;;;;;10.45;8.27;;;;;;;10.85;70.04;94398.50;10436170;27;97219;-62
2022/04/23 04:39:54;;;;;;;10.50;8.82;;;;;;;10.77;69.76;94390.81;10450175;27;96967;-62
2022/04/23 04:44:57;;;;;;;12.07;9.32;;;;;;;10.80;70.14;94401.69;10451881;27;100883;-62
2022/04/23 04:50:01;;;;;;;8.82;7.88;;;;;;;10.73;70.46;94385.19;10427146;27;96803;-62
2022/04/23 04:55:06;;;;;;;11.23;9.02;;;;;;;10.85;70.18;94376.81;10428521;27;97256;-62
2022/04/23 05:00:11;;;;;;;9.38;7.97;;;;;;;10.93;69.43;94367.00;10447883;27;97134;-62
2022/04/23 05:05:13;;;;;;;9.82;8.82;;;;;;;10.87;70.10;94388.66;10432265;27;96873;-62
2022/04/23 05:10:18;;;;;;;11.30;9.55;;;;;;;10.75;70.98;94388.41;10448317;27;97259;-62
2022/04/23 05:15:20;;;;;;;12.33;9.90;;;;;;;10.70;70.77;94392.59;10435139;27;99005;-62
2022/04/23 05:20:23;;;;;;;11.30;10.10;;;;;;;10.76;70.48;94412.72;10438213;27;96733;-62
2022/04/23 05:25:28;;;;;;;12.00;10.48;;;;;;;10.67;71.19;94416.47;10428237;27;96789;-62
2022/04/23 05:30:31;;;;;;;15.30;11.73;;;;;;;10.31;72.72;94414.88;10428589;27;96847;-62
2022/04/23 05:35:33;;;;;;;12.43;10.57;;;;;;;10.09;73.31;94414.91;10438930;27;96877;-62
2022/04/23 05:40:38;;;;;;;11.93;10.30;;;;;;;10.02;73.76;94403.63;10446763;27;97006;-62
2022/04/23 05:45:41;;;;;;;13.53;10.83;;;;;;;9.96;73.97;94415.63;10452146;27;96919;-62
2022/04/23 05:50:43;;;;;;;11.35;9.68;;;;;;;10.18;73.32;94434.69;10450300;27;97182;-62
2022/04/23 05:55:48;;;;;;;13.20;9.70;;;;;;;10.53;72.23;94426.06;10445103;27;96718;-62
2022/04/23 06:00:51;;;;;;;12.03;10.67;;;;;;;10.68;71.66;94412.88;10441181;27;100725;-62
2022/04/23 06:05:54;;;;;;;13.68;11.13;;;;;;;10.51;72.40;94405.38;10454120;27;96878;-62
2022/04/23 06:10:58;;;;;;;10.25;9.18;;;;;;;10.52;72.53;94406.19;10443014;27;96960;-62
2022/04/23 06:16:01;;;;;;;10.87;9.50;;;;;;;10.56;72.66;94410.81;10430045;27;96919;-62
2022/04/23 06:21:05;;;;;;;12.30;9.32;;;;;;;10.86;71.98;94410.56;10440443;27;100503;-62
2022/04/23 06:26:09;;;;;;;12.52;11.15;;;;;;;11.01;72.03;94407.81;10424046;27;96947;-62
2022/04/23 06:31:12;;;;;;;16.53;13.13;;;;;;;11.02;71.47;94413.84;10453451;27;98233;-62
2022/04/23 06:36:15;;;;;;;15.95;13.20;;;;;;;11.04;71.17;94417.88;10445210;27;96840;-62
2022/04/23 06:41:19;;;;;;;14.90;12.82;;;;;;;11.12;70.75;94409.03;10444540;27;96785;-62
2022/04/23 06:46:22;;;;;;;14.33;12.27;;;;;;;11.21;70.81;94407.06;10444224;27;98328;-62
2022/04/23 06:51:25;;;;;;;15.38;13.27;;;;;;;11.31;70.46;94408.34;10451910;27;96816;-62
2022/04/23 06:56:30;;;;;;;14.93;13.40;;;;;;;11.45;70.03;94405.75;10431590;27;96713;-62
2022/04/23 07:01:33;;;;;;;16.75;14.43;;;;;;;11.53;70.29;94406.38;10441916;27;96899;-62
2022/04/23 07:06:36;;;;;;;16.90;15.10;;;;;;;11.64;70.33;94407.63;10434768;27;97347;-62
2022/04/23 07:11:40;;;;;;;17.73;14.68;;;;;;;11.95;69.89;94405.41;10437661;27;97114;-62
2022/04/23 07:16:43;;;;;;;17.83;15.00;;;;;;;12.16;69.60;94405.19;10439790;27;97364;-62
2022/04/23 07:21:46;;;;;;;17.50;15.05;;;;;;;12.53;68.75;94404.75;10423290;27;98091;-63
2022/04/23 07:26:59;;;;;;;15.80;14.13;;;;;;;12.76;69.09;94412.16;10449152;27;96979;-62
2022/04/23 07:32:02;;;;;;;16.27;14.57;;;;;;;13.06;68.14;94404.63;10427967;27;96943;-63
2022/04/23 07:42:27;;;;;;;15.90;14.27;;;;;;;13.49;67.35;94404.00;10451558;27;97988;-62
2022/04/23 07:47:30;;;;;;;15.50;13.75;;;;;;;13.61;67.46;94410.19;10442961;27;97066;-62
2022/04/23 07:52:35;;;;;;;15.35;13.75;;;;;;;13.98;66.87;94413.00;10433756;27;97290;-63
2022/04/23 07:57:39;;;;;;;;;;;;;;;14.48;66.35;94406.94;10431537;27;96959;-62
2022/04/23 08:02:42;;;;;;;14.75;12.88;;;;;;;14.74;64.55;94408.47;10432032;27;96935;-62
2022/04/23 08:07:45;;;;;;;15.18;13.55;;;;;;;14.78;64.55;94411.47;10435540;27;96775;-63
2022/04/23 08:12:50;;;;;;;15.02;13.18;;;;;;;14.77;63.78;94402.00;10433621;27;96840;-63
2022/04/23 08:17:52;;;;;;;13.75;12.35;;;;;;;14.83;64.25;94405.56;10424586;27;96958;-63
2022/04/23 08:22:56;;;;;;;13.00;11.70;;;;;;;15.05;63.50;94412.00;10440351;27;98458;-63
2022/04/23 08:30:34;;;;;;;12.23;10.90;;;;;;;14.94;62.87;94424.06;10441741;27;97042;-62
2022/04/23 08:33:23;;;;;;;13.32;11.65;;;;;;;14.58;62.96;94422.19;10435414;27;97253;-62
2022/04/23 08:38:27;;;;;;;11.73;10.45;;;;;;;14.61;64.01;94424.41;10448407;27;99456;-63
2022/04/23 08:43:32;;;;;;;10.25;9.23;;;;;;;14.89;62.55;94412.59;10425249;27;97400;-63
2022/04/23 08:48:38;;;;;;;10.55;9.55;;;;;;;15.41;62.16;94412.97;10440398;27;103540;-63
2022/04/23 08:53:41;;;;;;;27.73;24.60;;;;;;;15.87;60.15;94421.28;10454358;27;96821;-62
2022/04/23 08:58:47;;;;;;;10.65;8.52;;;;;;;16.06;59.43;94428.06;10441067;27;96826;-63
2022/04/23 09:03:50;;;;;;;10.45;9.35;;;;;;;16.13;58.85;94422.72;10444458;27;100269;-63
2022/04/23 09:09:14;;;;;;;9.80;8.80;;;;;;;15.90;58.12;94414.78;10449910;27;97000;-62
2022/04/23 09:14:27;;;;;;;8.75;7.93;;;;;;;15.22;58.60;94414.03;10441357;27;96928;-63
2022/04/23 09:24:52;;;;;;;12.90;11.63;;;;;;;15.42;58.26;94422.47;10431294;27;97113;-63
2022/04/23 09:29:59;;;;;;;9.97;8.83;;;;;;;15.31;58.54;94439.00;10445630;27;98173;-62
2022/04/23 09:35:08;;;;;;;8.98;7.25;;;;;;;15.29;60.10;94444.47;10426604;27;96982;-62
2022/04/23 09:40:18;;;;;;;7.65;6.53;;;;;;;15.14;59.40;94438.78;10431852;27;97008;-62
2022/04/23 09:45:26;;;;;;;8.60;6.75;;;;;;;14.90;60.11;94458.88;10429397;27;97027;-62
2022/04/23 09:50:36;;;;;;;8.82;8.00;;;;;;;14.81;62.04;94462.81;10456283;27;97004;-63
2022/04/23 09:55:39;;;;;;;13.55;9.45;;;;;;;14.57;63.38;94473.13;10448941;27;96937;-62
2022/04/23 10:00:45;;;;;;;12.00;10.80;;;;;;;14.40;63.89;94464.19;10457088;27;97222;-63
2022/04/23 10:05:49;;;;;;;14.00;10.55;;;;;;;14.33;65.27;94467.69;10464152;27;97548;-64
2022/04/23 10:10:55;;;;;;;11.30;10.13;;;;;;;14.16;66.17;94477.88;10438722;27;101583;-63
2022/04/23 10:15:59;;;;;;;11.50;8.55;;;;;;;13.36;67.09;94473.09;10448863;27;96949;-63
2022/04/23 10:21:08;;;;;;;7.82;6.72;;;;;;;12.77;69.16;94453.88;10440401;27;96824;-62
2022/04/23 10:26:23;;;;;;;5.55;4.82;;;;;;;11.95;70.59;94429.75;10436518;27;97785;-62
2022/04/23 10:31:27;;;;;;;7.43;4.10;;;;;;;11.32;72.06;94399.50;10427977;27;97636;-63
2022/04/23 10:36:30;;;;;;;5.37;3.73;;;;;;;11.15;72.71;94374.69;10447360;27;98772;-63
2022/04/23 10:41:33;;;;;;;3.85;3.30;;;;;;;11.17;73.70;94349.16;10450507;27;96840;-63
2022/04/23 10:46:47;;;;;;;4.53;3.00;;;;;;;11.33;73.18;94317.47;10435762;27;98387;-62
2022/04/23 10:51:52;;;;;;;2.78;2.33;;;;;;;11.72;72.21;94294.13;10440307;27;97119;-63
2022/04/23 10:56:57;;;;;;;2.67;2.08;;;;;;;12.04;70.98;94302.13;10443628;27;97357;-63
2022/04/23 11:02:06;;;;;;;3.95;2.70;;;;;;;12.55;70.29;94308.47;10445064;27;97664;-63
2022/04/23 11:12:32;;;;;;;3.63;2.88;;;;;;;13.26;69.96;94322.47;10424337;27;96784;-63
2022/04/23 11:17:58;;;;;;;4.72;3.55;;;;;;;13.38;70.61;94349.63;10436153;27;96883;-63
2022/04/23 11:23:02;;;;;;;4.35;3.72;;;;;;;13.50;70.00;94358.41;10430955;27;96795;-63
2022/04/23 11:28:23;;;;;;;4.47;3.70;;;;;;;13.76;68.28;94364.50;10449187;27;97248;-63
2022/04/23 11:33:27;;;;;;;5.15;4.45;;;;;;;13.96;68.52;94373.00;10412219;27;96947;-63
2022/04/23 11:38:30;;;;;;;6.03;4.80;;;;;;;14.18;68.58;94391.00;10443339;27;98205;-63
2022/04/23 11:43:37;;;;;;;6.38;4.63;;;;;;;13.81;68.99;94390.88;10443870;27;96887;-62
2022/04/23 11:48:48;;;;;;;6.75;4.13;;;;;;;13.71;68.27;94359.09;10447882;27;98056;-62
2022/04/23 11:53:57;;;;;;;5.40;4.18;;;;;;;13.82;68.37;94368.88;10444693;27;101500;-63
2022/04/23 11:59:05;;;;;;;4.90;4.25;;;;;;;13.54;68.83;94349.09;10445304;27;97238;-63
2022/04/23 12:04:09;;;;;;;5.40;3.88;;;;;;;13.26;69.29;94332.97;10452247;27;97341;-62
2022/04/23 12:09:12;;;;;;;4.17;3.73;;;;;;;13.27;69.99;94339.78;10435124;27;97081;-62
2022/04/23 12:14:15;;;;;;;4.05;3.65;;;;;;;13.33;68.88;94347.63;10427142;27;96890;-63
2022/04/23 12:19:32;;;;;;;5.97;4.55;;;;;;;13.41;67.97;94328.19;10439631;27;97010;-64
2022/04/23 12:24:36;;;;;;;4.53;2.97;;;;;;;13.50;67.35;94321.69;10436923;27;97388;-62
2022/04/23 12:40:47;;;;;;;5.18;3.80;;;;;;;14.61;66.23;94311.41;10438410;27;98118;-63
2022/04/23 12:45:50;;;;;;;3.05;2.55;;;;;;;15.11;65.34;94315.63;10444697;27;98120;-63
2022/04/23 12:51:05;;;;;;;3.42;2.75;;;;;;;15.57;64.93;94319.44;10452973;27;99829;-63
2022/04/23 12:56:09;;;;;;;3.80;2.72;;;;;;;16.13;63.11;94330.50;10447634;27;96955;-63
2022/04/23 13:01:12;;;;;;;3.03;2.72;;;;;;;15.91;63.20;94342.63;10435412;27;97156;-63
2022/04/23 13:11:36;;;;;;;3.40;2.97;;;;;;;15.19;63.70;94348.72;10428741;27;98260;-63
2022/04/23 13:16:39;;;;;;;4.72;3.70;;;;;;;14.67;65.06;94352.56;10426547;27;96951;-63
2022/04/23 13:21:51;;;;;;;5.40;3.90;;;;;;;14.18;66.30;94349.00;10430704;27;96915;-63
2022/04/23 13:26:53;;;;;;;4.17;3.60;;;;;;;13.73;66.82;94297.50;10450980;27;97831;-63
2022/04/23 13:31:56;;;;;;;4.55;3.63;;;;;;;13.16;69.67;94218.84;10440085;27;101751;-63
2022/04/23 13:37:02;;;;;;;6.93;4.10;;;;;;;13.08;70.34;94221.72;10454455;27;97018;-63
2022/04/23 13:42:05;;;;;;;5.05;4.07;;;;;;;13.32;70.46;94224.56;10450694;27;97005;-63
2022/04/23 13:47:09;;;;;;;5.35;3.80;;;;;;;13.73;70.70;94228.47;10454129;27;96760;-62
2022/04/23 13:52:13;;;;;;;4.05;3.60;;;;;;;14.41;70.32;94217.03;10443232;27;97830;-63
2022/04/23 13:57:16;;;;;;;;;;;;;;;15.20;68.47;94201.22;10443358;27;97630;-63
2022/04/23 14:13:02;;;;;;;3.28;2.70;;;;;;;16.19;65.29;94253.22;10447636;27;97305;-63
2022/04/23 14:18:06;;;;;;;5.00;2.95;;;;;;;16.74;63.75;94259.03;10441737;27;97095;-63
2022/04/23 14:23:10;;;;;;;3.30;2.60;;;;;;;16.81;63.58;94228.06;10452456;27;97003;-63
2022/04/23 14:28:14;;;;;;;2.72;2.17;;;;;;;16.90;62.88;94195.03;10442875;27;98542;-63
2022/04/23 14:33:17;;;;;;;3.25;2.42;;;;;;;16.75;62.09;94216.66;10444779;27;97536;-63
2022/04/23 14:38:22;;;;;;;4.00;3.08;;;;;;;15.63;63.89;94204.56;10444957;27;96902;-63
2022/04/23 14:43:26;;;;;;;3.72;3.10;;;;;;;14.97;64.64;94201.16;10442284;27;101503;-63
2022/04/23 14:48:29;;;;;;;5.83;3.80;;;;;;;14.82;65.99;94185.78;10446010;27;98347;-63
2022/04/23 14:53:34;;;;;;;4.82;3.92;;;;;;;14.67;66.45;94167.81;10458435;27;96825;-64
2022/04/23 14:58:36;;;;;;;5.17;4.30;;;;;;;14.79;66.66;94144.19;10449892;27;97559;-63
2022/04/23 15:03:39;;;;;;;6.80;5.47;;;;;;;15.02;66.77;94117.13;10446261;27;97807;-65
2022/04/23 15:08:44;;;;;;;6.85;5.45;;;;;;;15.77;64.94;94090.13;10450348;27;97203;-63
2022/04/23 15:13:47;;;;;;;6.68;5.95;;;;;;;15.95;64.73;94075.22;10450176;27;99365;-64
2022/04/23 15:18:49;;;;;;;7.00;6.30;;;;;;;16.31;63.60;94058.22;10438749;27;98336;-64
2022/04/23 15:23:54;;;;;;;7.10;6.40;;;;;;;16.33;62.46;94050.88;10452555;27;97140;-64
2022/04/23 15:28:56;;;;;;;7.20;6.25;;;;;;;16.35;62.39;94050.66;10441362;27;97063;-64
2022/04/23 15:34:00;;;;;;;6.90;5.85;;;;;;;16.39;61.50;94042.00;10445769;27;97755;-63
2022/04/23 15:39:05;;;;;;;7.15;5.78;;;;;;;15.96;62.17;94035.44;10448393;27;97045;-64
2022/04/23 15:44:08;;;;;;;7.68;5.97;;;;;;;15.73;62.02;94014.50;10445507;27;97380;-64
2022/04/23 15:49:11;;;;;;;7.32;6.57;;;;;;;15.54;61.88;94004.09;10440064;27;99151;-64
2022/04/23 15:54:16;;;;;;;7.57;6.80;;;;;;;15.23;61.97;94005.31;10447402;27;96946;-64
2022/04/23 15:59:19;;;;;;;9.77;8.77;;;;;;;15.19;61.95;93996.28;10445996;27;98141;-64
2022/04/23 16:04:24;;;;;;;9.88;8.88;;;;;;;15.34;62.03;93993.16;10443271;27;97761;-63
2022/04/23 16:09:28;;;;;;;13.98;11.85;;;;;;;15.21;61.39;93988.97;10443769;27;97024;-63
2022/04/23 16:14:31;;;;;;;13.18;10.10;;;;;;;15.21;61.21;93986.34;10445123;27;97983;-63
2022/04/23 16:19:54;;;;;;;11.05;9.50;;;;;;;15.01;61.51;93979.63;10442411;27;98565;-64
2022/04/23 16:25:07;;;;;;;10.30;8.93;;;;;;;14.98;61.16;93969.56;10452277;27;101346;-64
2022/04/23 16:30:10;;;;;;;10.52;9.35;;;;;;;14.80;61.47;93956.53;10447908;27;98696;-64
2022/04/23 16:35:13;;;;;;;10.03;9.03;;;;;;;14.79;61.96;93968.09;10444564;27;98737;-63
2022/04/23 16:50:58;;;;;;;10.63;9.50;;;;;;;14.49;62.47;93975.06;10443888;27;101225;-64
2022/04/23 16:56:04;;;;;;;11.13;9.68;;;;;;;14.35;62.99;93958.72;10437794;27;96871;-63
2022/04/23 17:01:07;;;;;;;10.32;9.05;;;;;;;14.11;62.91;93938.69;10447417;27;96833;-64
2022/04/23 17:06:10;;;;;;;12.40;10.45;;;;;;;13.58;64.18;93870.19;10458783;27;97254;-64
2022/04/23 17:11:14;;;;;;;13.65;11.55;;;;;;;13.21;65.71;93867.69;10455822;27;96774;-64
2022/04/23 17:16:18;;;;;;;12.17;10.93;;;;;;;13.28;65.36;93920.03;10457667;27;97087;-64
2022/04/23 17:21:22;;;;;;;12.57;11.27;;;;;;;13.43;64.69;93924.91;10441842;27;96828;-64
2022/04/23 17:26:28;;;;;;;15.57;12.35;;;;;;;13.56;65.20;93932.56;10436125;27;96915;-64
2022/04/23 17:31:31;;;;;;;13.30;11.10;;;;;;;13.54;64.17;93929.38;10450056;27;97177;-64
2022/04/23 17:36:34;;;;;;;12.45;10.95;;;;;;;13.67;64.69;93927.59;10455636;27;97248;-64
2022/04/23 17:41:39;;;;;;;14.50;13.02;;;;;;;13.60;63.27;93927.69;10446410;27;97081;-64
2022/04/23 17:46:43;;;;;;;13.93;12.32;;;;;;;13.51;63.83;93929.03;10430629;27;96932;-64
2022/04/23 17:51:46;;;;;;;12.83;11.43;;;;;;;13.52;63.67;93941.13;10427138;27;97322;-64
2022/04/23 17:56:50;;;;;;;13.98;12.57;;;;;;;13.63;63.16;93932.50;10437707;27;97091;-64
2022/04/23 18:07:27;;;;;;;14.35;12.68;;;;;;;13.46;63.23;93947.25;10432503;27;98673;-64
2022/04/23 18:12:33;;;;;;;14.05;12.02;;;;;;;13.42;63.57;93957.38;10443278;27;96959;-64
2022/04/23 18:17:36;;;;;;;13.40;11.07;;;;;;;13.47;62.90;93949.66;10436780;27;97166;-64
2022/04/23 18:22:39;;;;;;;11.77;10.55;;;;;;;13.30;64.23;93932.94;10428039;27;97469;-64
2022/04/23 18:27:43;;;;;;;14.60;12.00;;;;;;;13.05;65.36;93931.22;10441117;27;96821;-63
2022/04/23 18:32:46;;;;;;;14.20;12.70;;;;;;;12.94;66.10;93947.66;10451136;27;96909;-64
2022/04/23 18:37:49;;;;;;;11.77;10.57;;;;;;;12.83;66.58;93944.72;10451850;27;97013;-64
2022/04/23 18:42:53;;;;;;;12.07;10.73;;;;;;;12.81;66.99;93948.59;10443680;27;96891;-64
2022/04/23 18:47:56;;;;;;;;;;;;;;;12.85;66.20;93952.38;10451614;27;96922;-63
2022/04/23 18:53:00;;;;;;;14.45;12.95;;;;;;;12.78;67.23;93968.16;10451310;27;97010;-64
2022/04/23 18:58:05;;;;;;;15.05;13.38;;;;;;;12.84;68.00;93971.75;10451041;27;96911;-64
2022/04/23 19:03:07;;;;;;;;;;;;;;;12.89;67.79;93977.13;10438452;27;99306;-63
2022/04/23 19:08:12;;;;;;;11.70;10.25;;;;;;;12.75;68.57;94000.03;10416795;27;97379;-64
2022/04/23 19:13:16;;;;;;;8.70;7.20;;;;;;;12.48;69.35;94005.50;10415374;28;97112;-64
2022/04/23 19:18:19;;;;;;;3.65;2.95;;;;;;;12.18;69.03;94031.50;10433694;27;98823;-64
2022/04/23 19:28:44;;;;;;;0.47;0.38;;;;;;;11.29;67.60;94054.81;10434112;27;99101;-64
2022/04/23 19:33:47;;;;;;;0.67;0.40;;;;;;;11.02;67.75;94077.59;10422891;27;96927;-64
2022/04/23 19:38:49;;;;;;;4.13;0.90;;;;;;;10.77;68.55;94121.81;10424510;27;96784;-64
2022/04/23 19:43:54;;;;;;;2.63;1.20;;;;;;;10.50;69.84;94176.63;10428302;27;96989;-63
2022/04/23 19:48:58;;;;;;;2.92;0.70;;;;;;;10.09;70.60;94211.44;10423769;27;96925;-64
2022/04/23 19:54:08;;;;;;;1.30;0.20;;;;;;;9.60;71.96;94235.84;10417807;27;96751;-63
2022/04/23 19:59:13;;;;;;;1.23;0.20;;;;;;;9.21;72.29;94261.41;10425660;27;102446;-63
2022/04/23 20:04:19;;;;;;;0.77;0.08;;;;;;;8.94;72.29;94275.19;10424262;27;97017;-64
2022/04/23 20:09:22;;;;;;;0.85;0.20;;;;;;;8.62;72.50;94277.25;10421047;27;96894;-63
2022/04/23 20:14:26;;;;;;;0.05;0.05;;;;;;;8.17;73.79;94269.53;10425428;27;96824;-64
2022/04/23 20:19:29;;;;;;;0.43;0.20;;;;;;;8.11;74.14;94267.66;10424884;27;96680;-63
2022/04/23 20:24:32;;;;;;;0.10;0.10;;;;;;;7.88;74.65;94260.75;10420811;27;97081;-63
2022/04/23 20:29:36;;;;;;;1.33;0.20;;;;;;;7.70;74.75;94248.13;10423324;27;96915;-64
2022/04/23 20:39:56;;;;;;;1.05;0.17;;;;;;;7.68;75.00;94257.06;10423153;27;96858;-64
2022/04/23 20:45:00;;;;;;;0.82;0.25;;;;;;;7.72;75.25;94266.94;10421994;27;96879;-64
2022/04/23 20:50:03;;;;;;;1.48;0.30;;;;;;;7.77;75.04;94282.81;10424891;27;96824;-63
2022/04/23 20:55:07;;;;;;;1.95;0.30;;;;;;;7.87;74.41;94303.34;10425630;27;96663;-64
2022/04/23 21:00:13;;;;;;;0.35;0.30;;;;;;;7.94;74.57;94311.22;10434587;27;96968;-63
2022/04/23 21:05:16;;;;;;;;;;;;;;;8.06;73.76;94317.59;10421929;27;96882;-63
2022/04/23 21:10:19;;;;;;;0.55;0.25;;;;;;;8.12;73.68;94329.09;10424081;27;96914;-64
2022/04/23 21:15:23;;;;;;;0.80;0.40;;;;;;;8.08;74.37;94343.41;10418591;27;96902;-64
2022/04/23 21:20:27;;;;;;;0.87;0.30;;;;;;;7.71;75.21;94353.69;10441628;27;96914;-66
2022/04/23 21:25:30;;;;;;;1.17;0.52;;;;;;;7.51;75.65;94343.00;10429008;27;97305;-64
2022/04/23 21:30:34;;;;;;;1.77;0.60;;;;;;;7.59;76.23;94349.91;10418918;27;96970;-65
2022/04/23 21:35:40;;;;;;;2.00;0.40;;;;;;;7.71;75.69;94342.50;10418323;27;96885;-65
2022/04/23 21:46:02;;;;;;;2.78;0.70;;;;;;;7.87;75.89;94338.94;10428319;27;96932;-64
2022/04/23 21:51:05;;;;;;;2.30;0.50;;;;;;;7.67;76.28;94339.44;10432094;27;96861;-64
2022/04/23 21:56:07;;;;;;;1.40;0.82;;;;;;;7.46;76.85;94337.53;10424684;27;96910;-64
2022/04/23 22:01:21;;;;;;;1.90;0.50;;;;;;;7.31;77.43;94329.66;10441583;27;97039;-64
2022/04/23 22:06:24;;;;;;;2.90;0.40;;;;;;;7.03;78.13;94314.63;10425625;27;96736;-64
2022/04/23 22:11:28;;;;;;;0.50;0.47;;;;;;;7.11;78.03;94321.56;10428732;27;96947;-64
2022/04/23 22:16:32;;;;;;;1.33;0.57;;;;;;;7.27;77.69;94335.38;10430009;27;97139;-64
2022/04/23 22:21:35;;;;;;;1.07;0.63;;;;;;;7.48;77.16;94322.56;10424425;27;97039;-65
2022/04/23 22:26:38;;;;;;;1.40;0.60;;;;;;;7.52;77.14;94347.19;10432752;27;97009;-64
2022/04/23 22:31:43;;;;;;;2.55;0.70;;;;;;;7.40;77.50;94343.41;10438605;27;97122;-64
2022/04/23 22:36:46;;;;;;;1.63;0.57;;;;;;;7.38;77.57;94364.34;10422761;27;96753;-64
2022/04/23 22:41:49;;;;;;;1.77;0.40;;;;;;;7.30;77.50;94371.41;10438830;27;96855;-65
2022/04/23 22:46:53;;;;;;;1.50;0.70;;;;;;;7.23;78.05;94376.47;10438883;27;97916;-65
2022/04/23 22:51:56;;;;;;;3.40;0.68;;;;;;;7.14;78.20;94378.31;10451490;27;96986;-65
2022/04/23 22:56:58;;;;;;;0.88;0.52;;;;;;;7.13;78.36;94391.50;10451243;27;96936;-64
2022/04/23 23:02:03;;;;;;;1.83;0.60;;;;;;;7.38;78.63;94407.72;10451336;27;96892;-64
2022/04/23 23:07:06;;;;;;;1.42;0.80;;;;;;;7.54;77.71;94412.78;10447086;27;97883;-65
2022/04/23 23:12:10;;;;;;;1.90;0.90;;;;;;;7.57;77.70;94415.03;10451618;27;96921;-64
2022/04/23 23:17:14;;;;;;;1.77;0.77;;;;;;;7.70;77.82;94413.63;10451293;27;96825;-64
2022/04/23 23:22:18;;;;;;;1.70;1.17;;;;;;;7.70;77.71;94417.06;10451735;27;96903;-64
2022/04/23 23:27:21;;;;;;;3.17;1.13;;;;;;;7.52;78.28;94425.13;10448901;27;97000;-64
2022/04/23 23:32:25;;;;;;;2.72;1.10;;;;;;;7.35;79.04;94444.41;10451025;27;98375;-64
2022/04/23 23:37:28;;;;;;;1.67;0.70;;;;;;;7.14;79.32;94440.63;10446459;27;97579;-64
2022/04/23 23:42:31;;;;;;;2.03;0.90;;;;;;;7.02;79.83;94442.00;10436475;27;99239;-64
2022/04/23 23:47:35;;;;;;;1.20;0.68;;;;;;;7.00;79.91;94438.78;10451070;27;96848;-64
2022/04/23 23:52:38;;;;;;;2.25;0.70;;;;;;;6.98;79.73;94436.34;10433745;27;97979;-64
2022/04/23 23:57:40;;;;;;;1.88;0.50;;;;;;;6.88;80.12;94430.50;10439393;27;97869;-64
